Station Historical Data
Daily Summary for June 9, 2017 Units:  Metric    English   Both
« Previous Day
Next Day »
Daily Weekly Monthly Yearly Custom
  High: Low: Average:
Temperature: 28.5 °C 17.2 °C 22.2 °C
Dew Point: 17.9 °C 14.3 °C 15.8 °C
Humidity: 92% 42% 69%
Wind Speed: 1.6km/h 0km/h 0km/h
Wind Gust: 8km/h - -
Wind- - NW
Pressure: 1016.1 hPa 1012.1 hPa -
Precipitation: 0 mm    
Historical Graphs
 
 
Tabular Data for June 9, 2017
Time Temperature Dew Point Pressure Wind Wind Speed Wind Gust Humidity Rainfall Rate (Hourly) Conditions
00:00 19.6 °C 16.1 °C 1012.4 hPa Calm     80% 0 mm SCT
00:10 19.6 °C 15.9 °C 1012.4 hPa Calm     79% 0 mm SCT
00:20 19.6 °C 16 °C 1012.4 hPa Calm     80% 0 mm SCT
00:30 19.5 °C 15.9 °C 1012.4 hPa Calm   1.6 km/h 80% 0 mm SCT
00:40 19.4 °C 15.9 °C 1012.4 hPa Calm     80% 0 mm SCT
00:50 19.4 °C 16.1 °C 1012.4 hPa Calm     81% 0 mm SCT
01:00 19.3 °C 16 °C 1012.4 hPa Calm     81% 0 mm SCT
01:10 19.2 °C 15.9 °C 1012.4 hPa Calm     81% 0 mm SCT
01:20 19.2 °C 16 °C 1012.4 hPa Calm     82% 0 mm SCT
01:30 19.1 °C 16.1 °C 1012.4 hPa Calm     83% 0 mm SCT
01:40 19 °C 16.1 °C 1012.4 hPa Calm     83% 0 mm SCT
01:50 19 °C 16.1 °C 1012.4 hPa Calm     83% 0 mm SCT
02:00 18.9 °C 15.9 °C 1012.4 hPa Calm   1.6 km/h 83% 0 mm SCT
02:10 18.8 °C 16.1 °C 1012.1 hPa Calm   1.6 km/h 84% 0 mm SCT
02:20 18.7 °C 15.9 °C 1012.1 hPa Calm     84% 0 mm SCT
02:30 18.7 °C 15.9 °C 1012.1 hPa Calm   1.6 km/h 84% 0 mm SCT
02:40 18.6 °C 16.1 °C 1012.1 hPa Calm   1.6 km/h 85% 0 mm SCT
02:50 18.5 °C 15.9 °C 1012.1 hPa Calm   1.6 km/h 85% 0 mm SCT
03:00 18.4 °C 15.9 °C 1012.1 hPa Calm     85% 0 mm SCT
03:10 18.4 °C 16 °C 1012.1 hPa Calm     86% 0 mm SCT
03:20 18.2 °C 15.8 °C 1012.1 hPa Calm     86% 0 mm SCT
03:30 17.9 °C 15.7 °C 1012.1 hPa Calm     87% 0 mm SCT
03:40 17.6 °C 15.4 °C 1012.1 hPa Calm     87% 0 mm SCT
03:50 17.2 °C 15 °C 1012.1 hPa Calm     87% 0 mm SCT
04:00 17.2 °C 15 °C 1012.4 hPa Calm     87% 0 mm SCT
04:10 17.2 °C 15 °C 1012.4 hPa Calm     87% 0 mm SCT
04:20 17.2 °C 15 °C 1012.4 hPa Calm     87% 0 mm SCT
04:30 17.2 °C 15 °C 1012.4 hPa Calm     87% 0 mm SCT
04:40 17.2 °C 15 °C 1012.4 hPa Calm     87% 0 mm SCT
04:50 17.2 °C 15 °C 1012.4 hPa Calm     87% 0 mm SCT
05:00 17.2 °C 15 °C 1012.8 hPa Calm     87% 0 mm SCT
05:10 17.2 °C 15 °C 1012.8 hPa Calm     87% 0 mm SCT
05:20 17.2 °C 15 °C 1012.8 hPa Calm     87% 0 mm SCT
05:30 17.2 °C 15 °C 1012.8 hPa Calm     87% 0 mm SCT
05:40 17.2 °C 15 °C 1013.1 hPa Calm     87% 0 mm SCT
05:50 17.2 °C 15 °C 1013.1 hPa Calm     87% 0 mm SCT
06:00 17.2 °C 15 °C 1013.1 hPa Calm     87% 0 mm SCT
06:10 17.2 °C 15 °C 1013.4 hPa Calm     87% 0 mm SCT
06:20 17.2 °C 15 °C 1013.8 hPa Calm     87% 0 mm SCT
06:30 17.2 °C 15 °C 1013.8 hPa Calm     87% 0 mm SCT
06:40 17.2 °C 15 °C 1013.8 hPa Calm     87% 0 mm SCT
06:50 17.2 °C 15 °C 1014.1 hPa Calm     87% 0 mm SCT
07:00 17.2 °C 15 °C 1014.1 hPa Calm     87% 0 mm SCT
07:10 17.2 °C 15 °C 1014.1 hPa Calm     87% 0 mm SCT
07:20 17.2 °C 15 °C 1014.4 hPa Calm     87% 0 mm SCT
07:30 17.2 °C 15 °C 1014.4 hPa Calm     87% 0 mm SCT
07:40 17.2 °C 15 °C 1014.4 hPa Calm     87% 0 mm SCT
07:50 17.4 °C 16.1 °C 1014.8 hPa Calm     92% 0 mm SCT
08:00 17.6 °C 16.3 °C 1014.8 hPa Calm     92% 0 mm SCT
08:10 17.8 °C 16.2 °C 1014.8 hPa Calm   1.6 km/h 90% 0 mm SCT
08:20 18.2 °C 16.4 °C 1014.8 hPa Calm     89% 0 mm SCT
08:30 18.6 °C 16.6 °C 1015.1 hPa Calm   1.6 km/h 88% 0 mm SCT
08:40 19.2 °C 16.8 °C 1015.1 hPa Calm     86% 0 mm SCT
08:50 19.7 °C 16.9 °C 1015.1 hPa Calm     84% 0 mm SCT
09:00 19.9 °C 16.9 °C 1015.1 hPa Calm     83% 0 mm SCT
09:10 20.3 °C 17.1 °C 1015.1 hPa Calm   1.6 km/h 82% 0 mm SCT
09:20 20.6 °C 17.2 °C 1015.5 hPa Calm   1.6 km/h 81% 0 mm SCT
09:30 20.8 °C 17.4 °C 1015.5 hPa Calm   1.6 km/h 81% 0 mm SCT
09:40 21.3 °C 17.3 °C 1015.5 hPa Calm   1.6 km/h 78% 0 mm SCT
09:50 21.6 °C 17.2 °C 1015.5 hPa Calm   1.6 km/h 76% 0 mm SCT
10:00 22.1 °C 17.7 °C 1015.5 hPa Calm     76% 0 mm SCT
10:10 22.7 °C 17.3 °C 1015.5 hPa Calm   3.2 km/h 72% 0 mm SCT
10:20 23.6 °C 17.9 °C 1015.5 hPa Calm     71% 0 mm SCT
10:30 24.2 °C 17.9 °C 1015.5 hPa Calm   1.6 km/h 68% 0 mm SCT
10:40 24.5 °C 17.5 °C 1015.5 hPa Calm   1.6 km/h 65% 0 mm SCT
10:50 24.7 °C 17.9 °C 1015.5 hPa Calm   1.6 km/h 66% 0 mm SCT
11:00 24.7 °C 16.9 °C 1015.5 hPa Calm   1.6 km/h 62% 0 mm SCT
11:10 24.8 °C 17.3 °C 1015.5 hPa Calm   3.2 km/h 63% 0 mm SCT
11:20 25.2 °C 17.9 °C 1015.5 hPa Calm   1.6 km/h 64% 0 mm SCT
11:30 24.8 °C 15.7 °C 1015.5 hPa Calm   3.2 km/h 57% 0 mm SCT
11:40 24.9 °C 16.6 °C 1015.5 hPa Calm   3.2 km/h 60% 0 mm SCT
11:50 24.8 °C 16.2 °C 1015.5 hPa Calm   3.2 km/h 59% 0 mm SCT
12:00 25.1 °C 15.7 °C 1015.5 hPa Calm   3.2 km/h 56% 0 mm SCT
12:10 24.9 °C 16.8 °C 1015.5 hPa Calm   3.2 km/h 61% 0 mm SCT
12:20 25.7 °C 16.2 °C 1015.5 hPa Calm   1.6 km/h 56% 0 mm SCT
12:30 26.1 °C 16.9 °C 1015.5 hPa Calm   1.6 km/h 57% 0 mm SCT
12:40 26.6 °C 15.3 °C 1015.1 hPa Calm   1.6 km/h 50% 0 mm SCT
12:50 27.4 °C 16.1 °C 1015.1 hPa Calm   8 km/h 50% 0 mm SCT
13:00 27.3 °C 15.3 °C 1015.1 hPa Calm   4.8 km/h 48% 0 mm SCT
13:10 27.1 °C 15.5 °C 1015.1 hPa NW 1.6 km/h 8 km/h 49% 0 mm SCT
13:20 27.7 °C 16.1 °C 1015.1 hPa Calm   3.2 km/h 49% 0 mm SCT
13:30 27.8 °C 16.1 °C 1015.1 hPa Calm   1.6 km/h 49% 0 mm SCT
13:40 27.3 °C 15 °C 1015.1 hPa Calm   8 km/h 47% 0 mm SCT
13:50 27.2 °C 15.6 °C 1014.8 hPa Calm   3.2 km/h 49% 0 mm SCT
14:00 27.6 °C 15.9 °C 1014.8 hPa Calm   3.2 km/h 49% 0 mm SCT
14:10 27.8 °C 15.8 °C 1014.8 hPa Calm   3.2 km/h 48% 0 mm SCT
14:20 27.8 °C 14.4 °C 1014.8 hPa Calm   3.2 km/h 44% 0 mm SCT
14:30 27.3 °C 15.7 °C 1014.4 hPa Calm   3.2 km/h 49% 0 mm SCT
14:40 27.6 °C 15.6 °C 1014.4 hPa Calm   3.2 km/h 48% 0 mm SCT
14:50 27.9 °C 15.6 °C 1014.4 hPa Calm   3.2 km/h 47% 0 mm SCT
15:00 27.4 °C 14.8 °C 1014.4 hPa Calm   3.2 km/h 46% 0 mm SCT
15:10 27.2 °C 15.8 °C 1014.4 hPa Calm   3.2 km/h 50% 0 mm SCT
15:20 27.4 °C 14.8 °C 1014.4 hPa Calm   3.2 km/h 46% 0 mm SCT
15:30 27.3 °C 15.3 °C 1014.4 hPa Calm   3.2 km/h 48% 0 mm SCT
15:40 27.6 °C 14.9 °C 1014.4 hPa Calm   8 km/h 46% 0 mm SCT
15:50 27.3 °C 15.3 °C 1014.1 hPa Calm   1.6 km/h 48% 0 mm SCT
16:00 26.7 °C 15.1 °C 1014.1 hPa Calm   1.6 km/h 49% 0 mm SCT
16:10 26.4 °C 15.4 °C 1014.1 hPa Calm   3.2 km/h 51% 0 mm SCT
16:20 26.2 °C 15.6 °C 1014.1 hPa Calm   1.6 km/h 52% 0 mm SCT
16:30 26.3 °C 15.4 °C 1014.1 hPa Calm   3.2 km/h 51% 0 mm SCT
16:40 26.6 °C 14.9 °C 1013.8 hPa Calm   3.2 km/h 49% 0 mm SCT
16:50 27 °C 15.4 °C 1013.8 hPa Calm   1.6 km/h 49% 0 mm SCT
17:00 28 °C 14.9 °C 1013.8 hPa Calm   4.8 km/h 45% 0 mm SCT
17:10 28.5 °C 14.3 °C 1013.8 hPa Calm   1.6 km/h 42% 0 mm SCT
17:20 27.9 °C 15.2 °C 1013.8 hPa Calm   1.6 km/h 46% 0 mm SCT
17:30 27.4 °C 15.4 °C 1013.4 hPa Calm   1.6 km/h 48% 0 mm SCT
17:40 27.4 °C 15.4 °C 1013.4 hPa Calm   1.6 km/h 48% 0 mm SCT
17:50 27.1 °C 15.8 °C 1013.4 hPa Calm   1.6 km/h 50% 0 mm SCT
18:00 27.1 °C 16.1 °C 1013.4 hPa Calm   4.8 km/h 51% 0 mm SCT
18:10 27 °C 16.3 °C 1013.4 hPa Calm   1.6 km/h 52% 0 mm SCT
18:20 26.6 °C 15.6 °C 1013.4 hPa Calm     51% 0 mm SCT
18:30 26.1 °C 16 °C 1013.4 hPa Calm     54% 0 mm SCT
18:40 25.3 °C 16.2 °C 1013.4 hPa Calm     57% 0 mm SCT
18:50 24.8 °C 16.6 °C 1013.4 hPa Calm     60% 0 mm SCT
19:00 24.7 °C 16.4 °C 1013.4 hPa Calm   1.6 km/h 60% 0 mm SCT
19:10 24.8 °C 16.2 °C 1013.4 hPa Calm   1.6 km/h 59% 0 mm SCT
19:20 24.9 °C 15.8 °C 1013.4 hPa Calm     57% 0 mm SCT
19:30 24.8 °C 15.9 °C 1013.4 hPa Calm   1.6 km/h 58% 0 mm SCT
19:40 24.7 °C 16.2 °C 1013.4 hPa Calm     59% 0 mm SCT
19:50 24.6 °C 15.7 °C 1013.8 hPa Calm     58% 0 mm SCT
20:00 24.4 °C 15.3 °C 1013.8 hPa Calm     57% 0 mm SCT
20:10 24.2 °C 15.9 °C 1013.8 hPa Calm     60% 0 mm SCT
20:20 23.9 °C 15.4 °C 1013.8 hPa Calm     59% 0 mm SCT
20:30 23.7 °C 15 °C 1014.1 hPa Calm     58% 0 mm SCT
20:40 23.6 °C 14.8 °C 1014.1 hPa Calm     58% 0 mm SCT
20:50 23.3 °C 15.1 °C 1014.1 hPa Calm     60% 0 mm SCT
21:01 23.1 °C 14.9 °C 1014.1 hPa Calm     60% 0 mm SCT
21:10 22.8 °C 14.9 °C 1014.1 hPa Calm     61% 0 mm SCT
21:20 22.6 °C 14.9 °C 1014.4 hPa Calm     62% 0 mm SCT
21:30 22.3 °C 15.2 °C 1014.4 hPa Calm     64% 0 mm SCT
21:40 22 °C 15.1 °C 1014.4 hPa Calm     65% 0 mm SCT
21:50 21.8 °C 15.2 °C 1014.8 hPa Calm     66% 0 mm SCT
22:00 21.6 °C 15.6 °C 1014.8 hPa Calm     69% 0 mm SCT
22:10 21.3 °C 16.1 °C 1015.1 hPa Calm     72% 0 mm SCT
22:20 21.1 °C 16 °C 1015.1 hPa Calm     73% 0 mm SCT
22:30 20.8 °C 16 °C 1015.5 hPa Calm     74% 0 mm SCT
22:40 20.5 °C 15.7 °C 1015.5 hPa Calm     74% 0 mm SCT
22:50 20.3 °C 15.9 °C 1015.8 hPa Calm     76% 0 mm SCT
23:00 20.1 °C 16 °C 1015.8 hPa Calm     77% 0 mm SCT
23:10 19.9 °C 16 °C 1016.1 hPa Calm     78% 0 mm SCT
23:21 19.8 °C 15.8 °C 1016.1 hPa Calm     78% 0 mm SCT
23:30 19.6 °C 15.8 °C 1016.1 hPa Calm     79% 0 mm SCT
23:40 19.4 °C 15.7 °C 1016.1 hPa Calm     79% 0 mm SCT
23:50 19.3 °C 15.7 °C 1016.1 hPa Calm     80% 0 mm SCT
Piedmont Bend
Compliments of Weather Underground - 4 mb